Terminal Aerodrome Forecast
Issued by NWS Wilmington, OH

Current Version | Previous Version | Graphics & Text | Print | Product List | Glossary On
Versions: 1 2 3 4 5 6 7 8 9 10 11 12 13 14 15 16 17 18 19 20 21 22 23
000
FTUS41 KILN 222102 AAB
TAFDAY
TAF AMD
KDAY 222102Z 2221/2318 18014G24KT P6SM -SHRA OVC025
     FM222300 21013G24KT P6SM VCSH OVC018
     FM230500 21012G24KT P6SM VCSH OVC050
     FM230800 22012G20KT P6SM OVC080
     FM231200 22013G24KT P6SM OVC025
     FM231600 24017G26KT P6SM OVC018=

USA.gov is the U.S. government's official web portal to all federal, state and local government web resources and services.